Time;durP1;ratioP1;P1;durP2;ratioP2;P2;SDS_P1;SDS_P2;PMS_P1;PMS_P2;Temp;Humidity;BMP_temperature;BMP_pressure;BME280_temperature;BME280_humidity;BME280_pressure;Samples;Min_cycle;Max_cycle;Signal;HPM_P1;HPM_P2
2021/03/10 00:00:00;;;;;;;6.57;4.80;;;8.60;74.70;;;;;;4973129;28;20034;-83
2021/03/10 00:02:26;;;;;;;6.63;4.47;;;8.60;74.80;;;;;;4988868;28;20162;-82
2021/03/10 00:04:51;;;;;;;7.05;5.10;;;8.60;74.80;;;;;;4992131;28;20062;-83
2021/03/10 00:07:17;;;;;;;6.55;4.72;;;8.50;74.70;;;;;;4964252;28;20065;-83
2021/03/10 00:09:43;;;;;;;6.40;4.80;;;8.50;74.70;;;;;;4993467;28;20478;-83
2021/03/10 00:12:09;;;;;;;6.03;4.43;;;8.50;74.70;;;;;;4976140;28;20022;-83
2021/03/10 00:14:35;;;;;;;7.05;5.05;;;8.40;74.70;;;;;;4976167;28;20045;-83
2021/03/10 00:17:00;;;;;;;6.43;4.75;;;8.40;74.70;;;;;;4976086;28;20442;-83
2021/03/10 00:19:27;;;;;;;6.57;4.38;;;8.40;74.70;;;;;;4974500;28;20187;-83
2021/03/10 00:21:53;;;;;;;7.03;5.00;;;8.30;74.70;;;;;;4993037;28;20038;-83
2021/03/10 00:24:18;;;;;;;6.65;4.78;;;8.30;74.70;;;;;;4993457;28;20054;-83
2021/03/10 00:26:44;;;;;;;6.65;4.30;;;8.20;74.60;;;;;;4993320;28;20030;-83
2021/03/10 00:29:11;;;;;;;5.85;4.38;;;8.20;74.70;;;;;;4991534;28;20125;-83
2021/03/10 00:31:37;;;;;;;7.20;5.07;;;8.10;74.70;;;;;;4991735;28;20472;-83
2021/03/10 00:34:03;;;;;;;6.53;4.93;;;8.10;74.70;;;;;;4991410;28;20050;-83
2021/03/10 00:36:28;;;;;;;7.00;4.85;;;8.10;74.70;;;;;;4959918;28;20038;-83
2021/03/10 00:38:54;;;;;;;5.85;4.25;;;8.10;74.70;;;;;;4964281;28;20026;-82
2021/03/10 00:41:20;;;;;;;6.80;4.90;;;8.10;74.70;;;;;;4969401;28;20030;-83
2021/03/10 00:43:46;;;;;;;6.38;5.00;;;8.00;74.60;;;;;;4976008;28;20050;-83
2021/03/10 00:46:11;;;;;;;6.18;4.32;;;8.00;74.60;;;;;;4995707;28;20092;-82
2021/03/10 00:48:37;;;;;;;6.05;4.38;;;8.00;74.60;;;;;;4963760;28;20097;-83
2021/03/10 00:51:03;;;;;;;7.00;5.18;;;7.90;74.60;;;;;;4962711;28;20057;-83
2021/03/10 00:53:29;;;;;;;6.82;5.05;;;7.90;74.60;;;;;;4947577;28;20026;-83
2021/03/10 00:55:54;;;;;;;6.63;4.85;;;7.90;74.60;;;;;;4947123;28;20471;-83
2021/03/10 00:58:20;;;;;;;6.07;4.40;;;7.90;74.60;;;;;;4995175;28;20395;-83
2021/03/10 01:00:46;;;;;;;6.05;4.50;;;7.90;74.60;;;;;;4976758;28;20076;-84
2021/03/10 01:03:12;;;;;;;5.82;4.72;;;7.80;74.50;;;;;;4995337;28;20039;-81
2021/03/10 01:05:37;;;;;;;6.82;4.78;;;7.80;74.60;;;;;;4977898;28;20423;-83
2021/03/10 01:08:03;;;;;;;6.30;4.50;;;7.80;74.60;;;;;;4995175;28;20031;-83
2021/03/10 01:10:29;;;;;;;6.50;4.95;;;7.80;74.60;;;;;;4946921;28;20480;-83
2021/03/10 01:12:55;;;;;;;6.93;4.90;;;7.80;74.50;;;;;;4962581;28;20030;-83
2021/03/10 01:15:21;;;;;;;6.43;4.75;;;7.70;74.50;;;;;;4979069;28;20037;-82
2021/03/10 01:17:47;;;;;;;6.32;4.28;;;7.70;74.50;;;;;;4978690;28;20026;-82
2021/03/10 01:20:19;;;;;;;6.20;4.35;;;7.70;74.60;;;;;;4977910;28;20461;-82
2021/03/10 01:22:46;;;;;;;6.47;4.70;;;7.60;74.50;;;;;;4974822;28;20034;-82
2021/03/10 01:25:13;;;;;;;7.13;4.65;;;7.60;74.50;;;;;;4950889;28;20077;-82
2021/03/10 01:27:39;;;;;;;6.43;4.78;;;7.60;74.50;;;;;;4996639;28;20029;-83
2021/03/10 01:30:10;;;;;;;7.22;5.32;;;7.60;74.50;;;;;;4978834;28;20030;-83
2021/03/10 01:32:36;;;;;;;6.95;4.97;;;7.60;74.50;;;;;;4968136;28;20117;-82
2021/03/10 01:35:04;;;;;;;7.03;5.07;;;7.50;74.50;;;;;;4978535;28;20041;-83
2021/03/10 01:37:30;;;;;;;7.65;4.82;;;7.50;74.50;;;;;;4962831;28;20027;-83
2021/03/10 01:39:57;;;;;;;6.72;4.93;;;7.50;74.50;;;;;;4961440;28;20026;-82
2021/03/10 01:42:23;;;;;;;6.93;5.05;;;7.50;74.50;;;;;;4994699;28;20046;-83
2021/03/10 01:44:49;;;;;;;6.90;5.00;;;7.50;74.50;;;;;;4994946;28;20105;-82
2021/03/10 01:47:17;;;;;;;6.22;4.57;;;7.40;74.40;;;;;;4962396;28;20479;-83
2021/03/10 01:49:43;;;;;;;6.82;4.95;;;7.40;74.40;;;;;;4975406;28;20030;-82
2021/03/10 01:52:10;;;;;;;7.30;4.57;;;7.40;74.40;;;;;;4973941;28;20092;-83
2021/03/10 01:54:36;;;;;;;6.25;4.53;;;7.40;74.40;;;;;;4957047;28;20456;-82
2021/03/10 01:57:02;;;;;;;6.82;4.80;;;7.40;74.40;;;;;;4988944;28;20073;-83
2021/03/10 01:59:28;;;;;;;7.28;5.05;;;7.30;74.50;;;;;;4965210;28;20027;-83
2021/03/10 02:01:54;;;;;;;6.78;5.30;;;7.30;74.30;;;;;;4975300;28;20030;-83
2021/03/10 02:04:21;;;;;;;6.43;4.65;;;7.30;74.40;;;;;;4997965;28;20027;-83
2021/03/10 02:06:55;;;;;;;8.48;5.05;;;7.30;74.40;;;;;;4982910;28;20483;-83
2021/03/10 02:09:52;;;;;;;7.70;4.97;;;7.20;74.30;;;;;;4979645;28;20027;-83
2021/03/10 02:12:18;;;;;;;7.20;4.85;;;7.20;74.50;;;;;;4986801;28;20045;-83
2021/03/10 02:15:05;;;;;;;6.22;4.38;;;7.20;74.30;;;;;;4978085;28;20026;-83
2021/03/10 02:17:37;;;;;;;7.38;4.45;;;7.10;74.40;;;;;;4995871;28;20109;-82
2021/03/10 02:20:02;;;;;;;7.10;5.20;;;7.10;74.30;;;;;;4978165;28;20054;-82
2021/03/10 02:22:43;;;;;;;7.13;4.80;;;7.10;74.30;;;;;;4975435;28;20165;-82
2021/03/10 02:25:20;;;;;;;7.25;4.90;;;7.10;74.30;;;;;;4981862;28;20030;-83
2021/03/10 02:27:48;;;;;;;7.38;4.82;;;7.10;74.30;;;;;;4974827;28;20027;-82
2021/03/10 02:30:16;;;;;;;6.38;4.53;;;7.10;74.30;;;;;;4990780;28;20030;-82
2021/03/10 02:32:57;;;;;;;6.55;4.53;;;7.00;74.30;;;;;;4974181;28;20069;-83
2021/03/10 02:35:24;;;;;;;7.20;5.10;;;7.00;74.40;;;;;;4991682;28;20034;-83
2021/03/10 02:37:56;;;;;;;6.20;4.55;;;7.00;74.30;;;;;;4962019;28;20097;-83
2021/03/10 02:40:25;;;;;;;6.38;4.45;;;7.00;74.40;;;;;;4993325;28;20105;-82
2021/03/10 02:42:51;;;;;;;6.82;5.05;;;6.90;74.30;;;;;;4993672;28;20549;-82
2021/03/10 02:45:19;;;;;;;7.07;5.10;;;6.90;74.30;;;;;;4977456;28;20027;-82
2021/03/10 02:47:47;;;;;;;6.25;4.68;;;6.90;74.30;;;;;;4993827;28;20475;-83
2021/03/10 02:50:14;;;;;;;6.78;4.80;;;6.90;74.30;;;;;;4977484;28;20500;-82
2021/03/10 02:52:41;;;;;;;6.80;4.93;;;6.90;74.30;;;;;;4993560;28;20045;-82
2021/03/10 02:55:08;;;;;;;6.82;4.72;;;6.80;74.30;;;;;;4993634;28;20034;-83
2021/03/10 02:57:33;;;;;;;6.95;4.57;;;6.80;74.30;;;;;;4993245;28;20097;-83
2021/03/10 03:00:03;;;;;;;6.10;4.38;;;6.80;74.30;;;;;;4976894;28;20130;-83
2021/03/10 03:02:29;;;;;;;6.82;4.43;;;6.80;74.30;;;;;;4994503;28;20076;-82
2021/03/10 03:04:54;;;;;;;7.07;5.13;;;6.80;74.30;;;;;;4977263;28;20388;-82
2021/03/10 03:07:20;;;;;;;7.07;4.93;;;6.70;74.30;;;;;;4975523;28;20031;-83
2021/03/10 03:09:47;;;;;;;7.30;5.18;;;6.70;74.30;;;;;;4976964;28;20109;-82
2021/03/10 03:12:13;;;;;;;6.50;4.47;;;6.70;74.30;;;;;;4976650;28;20142;-83
2021/03/10 03:14:41;;;;;;;7.60;5.40;;;6.70;74.30;;;;;;4976844;28;20463;-82
2021/03/10 03:17:08;;;;;;;7.55;5.13;;;6.70;74.40;;;;;;4990973;28;20050;-83
2021/03/10 03:19:34;;;;;;;7.18;5.30;;;6.70;74.30;;;;;;4976709;28;20069;-82
2021/03/10 03:22:01;;;;;;;8.02;5.38;;;6.70;74.30;;;;;;4993155;28;20035;-81
2021/03/10 03:24:29;;;;;;;7.63;5.38;;;6.70;74.40;;;;;;4992832;28;20042;-82
2021/03/10 03:26:57;;;;;;;6.57;4.75;;;6.60;74.30;;;;;;4973604;28;20026;-83
2021/03/10 03:29:25;;;;;;;7.38;5.20;;;6.60;74.40;;;;;;4963515;28;20042;-83
2021/03/10 03:31:52;;;;;;;6.60;4.80;;;6.60;74.40;;;;;;4992784;28;20034;-82
2021/03/10 03:34:18;;;;;;;7.75;5.32;;;6.60;74.40;;;;;;4992736;28;20158;-81
2021/03/10 03:36:45;;;;;;;7.13;4.82;;;6.60;74.40;;;;;;4976820;28;20049;-81
2021/03/10 03:39:11;;;;;;;7.82;5.47;;;6.60;74.50;;;;;;4976310;28;20038;-82
2021/03/10 03:41:38;;;;;;;6.82;4.97;;;6.60;74.50;;;;;;4976997;28;20061;-82
2021/03/10 03:44:04;;;;;;;6.68;4.82;;;6.60;74.50;;;;;;4976763;28;20035;-82
2021/03/10 03:46:31;;;;;;;7.22;5.30;;;6.60;74.50;;;;;;4956584;28;20030;-82
2021/03/10 03:48:58;;;;;;;6.60;4.80;;;6.60;74.60;;;;;;4950428;28;20094;-82
2021/03/10 03:51:26;;;;;;;7.50;5.50;;;6.60;74.50;;;;;;4975115;28;20109;-83
2021/03/10 03:53:55;;;;;;;6.32;4.78;;;6.50;74.50;;;;;;4992362;28;20030;-82
2021/03/10 03:56:21;;;;;;;7.20;5.57;;;6.50;74.50;;;;;;4976226;28;20033;-82
2021/03/10 03:58:46;;;;;;;7.00;4.85;;;6.50;74.50;;;;;;4944596;28;20022;-82
2021/03/10 04:01:12;;;;;;;7.18;5.32;;;6.50;74.50;;;;;;4976204;28;20505;-82
2021/03/10 04:03:38;;;;;;;7.38;5.45;;;6.50;74.50;;;;;;4964570;28;20129;-82
2021/03/10 04:06:04;;;;;;;7.35;5.32;;;6.50;74.60;;;;;;4976315;28;20035;-82
2021/03/10 04:08:29;;;;;;;7.95;5.43;;;6.50;74.60;;;;;;4962563;28;20030;-82
2021/03/10 04:10:55;;;;;;;7.65;5.53;;;6.50;74.60;;;;;;4976052;28;20030;-82
2021/03/10 04:13:21;;;;;;;7.50;5.57;;;6.50;74.60;;;;;;4991675;28;20038;-83
2021/03/10 04:15:46;;;;;;;7.03;5.13;;;6.50;74.70;;;;;;4992005;28;20027;-83
2021/03/10 04:18:12;;;;;;;7.28;5.22;;;6.50;74.60;;;;;;4959267;28;20118;-83
2021/03/10 04:20:38;;;;;;;7.55;5.38;;;6.50;74.70;;;;;;4954813;28;20064;-82
2021/03/10 04:23:04;;;;;;;6.78;5.10;;;6.50;74.70;;;;;;4972977;28;20039;-82
2021/03/10 04:25:29;;;;;;;7.38;5.13;;;6.50;74.70;;;;;;4995799;28;20375;-82
2021/03/10 04:27:55;;;;;;;7.90;5.57;;;6.50;74.70;;;;;;4958187;28;20161;-82
2021/03/10 04:30:21;;;;;;;6.50;4.78;;;6.50;74.70;;;;;;4963943;28;20121;-82
2021/03/10 04:32:47;;;;;;;7.07;4.93;;;6.50;74.70;;;;;;4977117;28;20041;-83
2021/03/10 04:35:14;;;;;;;7.43;5.47;;;6.50;74.80;;;;;;4974617;28;20378;-83
2021/03/10 04:37:40;;;;;;;7.05;4.97;;;6.50;74.70;;;;;;4996482;28;20035;-82
2021/03/10 04:40:07;;;;;;;7.45;4.93;;;6.50;74.80;;;;;;4980311;28;20478;-82
2021/03/10 04:42:33;;;;;;;6.80;5.13;;;6.50;74.80;;;;;;4979562;28;20042;-82
2021/03/10 04:44:59;;;;;;;7.35;5.10;;;6.50;74.80;;;;;;4960830;28;20039;-82
2021/03/10 04:47:25;;;;;;;7.45;5.28;;;6.50;74.80;;;;;;4977153;28;20096;-83
2021/03/10 04:49:50;;;;;;;7.05;5.20;;;6.50;74.80;;;;;;4996047;28;20026;-83
2021/03/10 04:52:16;;;;;;;8.32;5.47;;;6.50;74.80;;;;;;4979516;28;20034;-83
2021/03/10 04:54:42;;;;;;;8.30;6.13;;;6.50;74.80;;;;;;4963817;28;20034;-83
2021/03/10 04:57:08;;;;;;;7.53;5.60;;;6.50;74.80;;;;;;4995948;28;20034;-82
2021/03/10 04:59:33;;;;;;;7.93;6.10;;;6.50;74.80;;;;;;4979375;28;20070;-82
2021/03/10 05:01:59;;;;;;;8.52;5.55;;;6.50;74.80;;;;;;4979582;28;20562;-82
2021/03/10 05:04:25;;;;;;;6.80;5.00;;;6.50;74.80;;;;;;4962918;28;20034;-82
2021/03/10 05:06:51;;;;;;;7.82;5.40;;;6.50;74.90;;;;;;4976354;28;20042;-82
2021/03/10 05:09:16;;;;;;;7.20;5.15;;;6.50;74.90;;;;;;4974467;28;20352;-82
2021/03/10 05:11:42;;;;;;;6.90;4.78;;;6.50;74.90;;;;;;4963302;28;20026;-83
2021/03/10 05:14:08;;;;;;;7.57;5.57;;;6.50;74.90;;;;;;4947413;28;20545;-83
2021/03/10 05:16:33;;;;;;;8.60;5.70;;;6.50;74.90;;;;;;4975628;28;20054;-82
2021/03/10 05:18:59;;;;;;;7.85;5.65;;;6.50;74.90;;;;;;4953898;28;20133;-82
2021/03/10 05:21:25;;;;;;;6.65;5.00;;;6.50;74.90;;;;;;4963079;28;20386;-83
2021/03/10 05:23:51;;;;;;;7.68;5.82;;;6.50;74.90;;;;;;4979063;28;20509;-82
2021/03/10 05:26:16;;;;;;;7.63;5.57;;;6.50;74.90;;;;;;4978630;28;20038;-82
2021/03/10 05:28:42;;;;;;;6.65;4.80;;;6.50;74.90;;;;;;4978464;28;20504;-83
2021/03/10 05:31:08;;;;;;;7.85;5.43;;;6.50;75.00;;;;;;4995180;28;20105;-83
2021/03/10 05:33:35;;;;;;;7.18;5.13;;;6.50;75.00;;;;;;4994293;28;20085;-83
2021/03/10 05:36:01;;;;;;;7.65;5.53;;;6.50;75.00;;;;;;4994098;28;20123;-82
2021/03/10 05:38:27;;;;;;;7.20;5.13;;;6.50;75.00;;;;;;4978271;28;20027;-82
2021/03/10 05:40:54;;;;;;;6.65;4.97;;;6.50;75.00;;;;;;4978451;28;20035;-82
2021/03/10 05:43:19;;;;;;;6.82;5.10;;;6.50;75.00;;;;;;4995658;28;20038;-80
2021/03/10 05:45:45;;;;;;;6.88;4.95;;;6.50;75.00;;;;;;4977319;28;20038;-85
2021/03/10 05:48:11;;;;;;;6.75;5.20;;;6.50;75.00;;;;;;4995864;28;20042;-80
2021/03/10 05:50:37;;;;;;;7.80;4.97;;;6.50;75.00;;;;;;4994587;28;20026;-84
2021/03/10 05:53:07;;;;;;;7.15;4.75;;;6.50;75.00;;;;;;4994256;28;20058;-80
2021/03/10 05:55:33;;;;;;;8.23;5.78;;;6.50;75.00;;;;;;4977230;28;20053;-79
2021/03/10 05:57:59;;;;;;;6.78;5.15;;;6.50;75.00;;;;;;4991361;28;20058;-78
2021/03/10 06:00:26;;;;;;;6.70;4.93;;;6.50;75.00;;;;;;4978007;28;20514;-79
2021/03/10 06:02:52;;;;;;;8.02;5.60;;;6.50;75.00;;;;;;4976974;28;20026;-79
2021/03/10 06:05:19;;;;;;;7.35;5.25;;;6.50;75.00;;;;;;4993232;28;20030;-79
2021/03/10 06:07:45;;;;;;;7.10;5.20;;;6.50;75.00;;;;;;4990579;28;20030;-79
2021/03/10 06:10:11;;;;;;;7.13;5.22;;;6.50;75.00;;;;;;4977394;28;20045;-79
2021/03/10 06:12:44;;;;;;;7.28;5.45;;;6.50;75.80;;;;;;4976989;28;20050;-81
2021/03/10 06:15:11;;;;;;;6.65;5.22;;;6.50;75.10;;;;;;4993304;28;20078;-86
2021/03/10 06:17:48;;;;;;;7.45;5.40;;;6.50;75.20;;;;;;4977285;28;20109;-80
2021/03/10 06:20:27;;;;;;;6.68;4.95;;;6.50;75.10;;;;;;4977197;28;20050;-79
2021/03/10 06:22:54;;;;;;;7.88;5.45;;;6.50;75.10;;;;;;4986615;28;20375;-79
2021/03/10 06:25:21;;;;;;;7.03;5.00;;;6.50;75.10;;;;;;4945358;28;20034;-80
2021/03/10 06:27:55;;;;;;;7.47;5.47;;;6.50;75.10;;;;;;4984965;28;20034;-80
2021/03/10 06:30:40;;;;;;;7.50;5.55;;;6.50;75.10;;;;;;4991850;28;20037;-79
2021/03/10 06:33:07;;;;;;;7.15;5.30;;;6.50;75.20;;;;;;4973995;28;20034;-78
2021/03/10 06:35:34;;;;;;;7.35;5.28;;;6.50;75.10;;;;;;4974816;28;20375;-79
2021/03/10 06:38:11;;;;;;;8.10;5.90;;;6.50;75.10;;;;;;4992779;28;20030;-79
2021/03/10 06:40:57;;;;;;;8.05;5.30;;;6.50;75.20;;;;;;4991739;28;20123;-79
2021/03/10 06:43:39;;;;;;;6.50;4.93;;;6.50;75.20;;;;;;4964236;28;20112;-79
2021/03/10 06:46:15;;;;;;;6.57;4.85;;;6.50;75.20;;;;;;4976092;28;20076;-78
2021/03/10 06:48:55;;;;;;;7.07;5.43;;;6.50;75.20;;;;;;4993710;28;20038;-79
2021/03/10 06:51:21;;;;;;;7.07;5.25;;;6.50;75.20;;;;;;4975594;28;20114;-79
2021/03/10 06:53:47;;;;;;;8.05;6.03;;;6.50;75.10;;;;;;4992998;28;20512;-78
2021/03/10 06:56:21;;;;;;;7.85;5.82;;;6.50;75.10;;;;;;4960362;28;20126;-79
2021/03/10 06:58:58;;;;;;;7.70;5.53;;;6.50;75.20;;;;;;4976238;28;20037;-78
2021/03/10 07:01:36;;;;;;;6.93;5.03;;;6.50;75.20;;;;;;4994560;28;20041;-80
2021/03/10 07:04:02;;;;;;;6.82;5.05;;;6.50;75.10;;;;;;4992533;28;20499;-79
2021/03/10 07:06:29;;;;;;;7.18;5.28;;;6.50;75.10;;;;;;4993369;28;20065;-79
2021/03/10 07:08:56;;;;;;;7.03;4.78;;;6.50;75.20;;;;;;4976356;28;20034;-79
2021/03/10 07:11:22;;;;;;;6.88;5.20;;;6.50;75.20;;;;;;4992546;28;20480;-79
2021/03/10 07:13:49;;;;;;;6.75;5.22;;;6.50;75.20;;;;;;4976201;28;20471;-80
2021/03/10 07:16:15;;;;;;;7.18;5.25;;;6.50;75.20;;;;;;4992435;28;20535;-79
2021/03/10 07:18:41;;;;;;;6.45;4.90;;;6.50;75.20;;;;;;4990711;28;20073;-79
2021/03/10 07:21:09;;;;;;;7.88;5.53;;;6.50;75.20;;;;;;4992208;28;20483;-79
2021/03/10 07:23:46;;;;;;;7.13;5.25;;;6.50;75.20;;;;;;4991646;28;20050;-80
2021/03/10 07:26:15;;;;;;;7.93;5.45;;;6.60;75.30;;;;;;4992524;28;20505;-79
2021/03/10 07:28:49;;;;;;;7.50;5.82;;;6.50;75.20;;;;;;4991750;28;20398;-79
2021/03/10 07:31:23;;;;;;;7.05;5.53;;;6.60;75.30;;;;;;4992394;28;20030;-79
2021/03/10 07:33:54;;;;;;;8.57;6.30;;;6.60;75.30;;;;;;4993092;28;20034;-79
2021/03/10 07:36:40;;;;;;;8.57;6.32;;;6.50;75.20;;;;;;4993324;28;20058;-79
2021/03/10 07:39:23;;;;;;;7.53;5.85;;;6.60;75.30;;;;;;4976393;28;20030;-79
2021/03/10 07:41:48;;;;;;;8.05;6.13;;;6.60;75.30;;;;;;4992185;28;20034;-79
2021/03/10 07:44:19;;;;;;;8.15;6.10;;;6.60;75.20;;;;;;4959800;28;20029;-79
2021/03/10 07:46:45;;;;;;;8.82;6.63;;;6.60;75.30;;;;;;4991744;28;20023;-79
2021/03/10 07:49:25;;;;;;;9.00;6.80;;;6.60;75.30;;;;;;4991249;28;20033;-79
2021/03/10 07:52:02;;;;;;;8.45;6.10;;;6.60;75.40;;;;;;4991547;28;20105;-82
2021/03/10 07:54:28;;;;;;;8.70;6.47;;;6.70;75.30;;;;;;4975591;28;20101;-82
2021/03/10 07:57:12;;;;;;;9.48;6.35;;;6.70;75.30;;;;;;4975977;28;20142;-81
2021/03/10 07:59:39;;;;;;;10.23;7.22;;;6.70;75.40;;;;;;4976812;28;20107;-82
2021/03/10 08:02:09;;;;;;;9.57;6.85;;;6.70;75.30;;;;;;4991501;28;20025;-81
2021/03/10 08:04:38;;;;;;;10.00;7.40;;;6.70;75.40;;;;;;4975503;28;20034;-82
2021/03/10 08:07:04;;;;;;;9.63;6.93;;;6.70;75.30;;;;;;4992080;28;20062;-82
2021/03/10 08:09:30;;;;;;;8.93;7.05;;;6.70;75.30;;;;;;4975964;28;20034;-82
2021/03/10 08:12:06;;;;;;;11.20;7.75;;;6.70;75.40;;;;;;4975649;28;20031;-82
2021/03/10 08:14:45;;;;;;;12.00;7.97;;;6.80;75.50;;;;;;4975558;28;20121;-82
2021/03/10 08:17:22;;;;;;;11.27;7.93;;;6.80;75.50;;;;;;4991522;28;20037;-82
2021/03/10 08:19:56;;;;;;;11.07;7.65;;;6.80;75.50;;;;;;4969353;28;20137;-83
2021/03/10 08:22:24;;;;;;;12.35;8.40;;;6.80;75.40;;;;;;4992612;28;20042;-82
2021/03/10 08:24:51;;;;;;;12.32;8.07;;;6.80;75.40;;;;;;4991426;28;20026;-82
2021/03/10 08:27:27;;;;;;;11.70;8.52;;;6.90;75.40;;;;;;4992238;28;20459;-81
2021/03/10 08:29:53;;;;;;;11.70;7.93;;;6.80;75.40;;;;;;4991836;28;20117;-82
2021/03/10 08:32:23;;;;;;;13.80;9.25;;;6.90;75.40;;;;;;4975564;28;20129;-81
2021/03/10 08:34:49;;;;;;;10.70;7.80;;;6.90;75.50;;;;;;5003950;28;20034;-81
2021/03/10 08:37:15;;;;;;;12.70;9.00;;;6.90;75.40;;;;;;4977567;28;20052;-81
2021/03/10 08:39:46;;;;;;;11.88;8.38;;;6.90;75.40;;;;;;4975308;28;20057;-81
2021/03/10 08:42:16;;;;;;;11.55;8.77;;;7.00;75.50;;;;;;4990679;28;20498;-81
2021/03/10 08:44:44;;;;;;;13.05;8.40;;;7.00;75.50;;;;;;4991275;28;20026;-81
2021/03/10 08:47:16;;;;;;;12.50;9.10;;;7.00;75.50;;;;;;4991558;28;20037;-81
2021/03/10 08:49:59;;;;;;;12.05;8.90;;;7.00;75.50;;;;;;4991458;28;20030;-81
2021/03/10 08:52:26;;;;;;;13.07;9.23;;;7.00;76.20;;;;;;4991111;28;20022;-82
2021/03/10 08:55:03;;;;;;;13.45;9.15;;;7.10;75.50;;;;;;4975867;28;20529;-81
2021/03/10 08:57:34;;;;;;;12.20;8.80;;;7.10;75.60;;;;;;4991616;28;20023;-80
2021/03/10 09:00:06;;;;;;;13.90;9.70;;;7.10;75.50;;;;;;4991592;28;20041;-81
2021/03/10 09:02:38;;;;;;;12.68;9.55;;;7.10;75.50;;;;;;4991761;28;20035;-81
2021/03/10 09:05:06;;;;;;;12.32;8.85;;;7.20;75.50;;;;;;4960011;28;20038;-82
2021/03/10 09:07:34;;;;;;;14.45;9.30;;;7.20;75.60;;;;;;4962982;28;20027;-81
2021/03/10 09:10:08;;;;;;;14.95;9.85;;;7.20;75.60;;;;;;4994825;28;20041;-81
2021/03/10 09:12:41;;;;;;;12.52;9.18;;;7.20;75.60;;;;;;4995153;28;20117;-80
2021/03/10 09:15:10;;;;;;;;;;;7.20;75.60;;;;;;4983487;28;20038;-79
2021/03/10 09:17:37;;;;;;;11.73;8.43;;;7.30;75.50;;;;;;4994763;28;19910;-79
2021/03/10 09:20:29;;;;;;;12.00;8.88;;;7.30;75.40;;;;;;4978749;28;20140;-80
2021/03/10 09:23:03;;;;;;;12.50;9.32;;;7.30;76.20;;;;;;4994092;28;20030;-80
2021/03/10 09:25:40;;;;;;;13.02;9.85;;;7.30;75.60;;;;;;4979668;28;20068;-80
2021/03/10 09:28:13;;;;;;;14.32;10.32;;;7.40;75.60;;;;;;4994991;28;20124;-81
2021/03/10 09:30:59;;;;;;;13.68;10.35;;;7.40;75.60;;;;;;4983500;28;20030;-81
2021/03/10 09:33:33;;;;;;;16.27;10.65;;;7.40;75.60;;;;;;4979596;28;20034;-81
2021/03/10 09:36:02;;;;;;;14.27;10.23;;;7.40;75.60;;;;;;4994595;28;20430;-81
2021/03/10 09:38:34;;;;;;;13.98;10.38;;;7.40;75.60;;;;;;4979296;28;20034;-81
2021/03/10 09:41:06;;;;;;;14.35;10.50;;;7.50;75.60;;;;;;4957505;28;20045;-80
2021/03/10 09:43:35;;;;;;;14.52;10.40;;;7.50;75.70;;;;;;4988138;28;20053;-80
2021/03/10 09:46:08;;;;;;;13.80;10.18;;;7.50;75.60;;;;;;4978961;28;20632;-81
2021/03/10 09:48:38;;;;;;;15.00;11.35;;;7.60;75.70;;;;;;4994700;28;20430;-82
2021/03/10 09:51:08;;;;;;;14.20;10.68;;;7.60;75.60;;;;;;4999114;28;20088;-81
2021/03/10 09:53:43;;;;;;;14.35;10.77;;;7.60;75.60;;;;;;4986563;28;20042;-81
2021/03/10 09:56:17;;;;;;;14.87;11.17;;;7.70;75.60;;;;;;4994375;28;20042;-81
2021/03/10 09:58:56;;;;;;;14.75;11.30;;;7.70;75.60;;;;;;4994268;28;20030;-81
2021/03/10 10:01:30;;;;;;;14.55;10.02;;;7.70;75.50;;;;;;4994504;28;20395;-81
2021/03/10 10:03:58;;;;;;;15.73;10.38;;;7.80;75.50;;;;;;4974743;28;20042;-82
2021/03/10 10:06:27;;;;;;;16.55;11.27;;;7.80;75.50;;;;;;4974876;28;20023;-81
2021/03/10 10:08:55;;;;;;;15.32;11.32;;;7.80;75.50;;;;;;4954651;28;20038;-81
2021/03/10 10:11:26;;;;;;;15.05;10.50;;;7.80;75.40;;;;;;4978543;28;20038;-81
2021/03/10 10:13:51;;;;;;;16.67;12.30;;;7.90;75.40;;;;;;4945811;28;20039;-82
2021/03/10 10:16:19;;;;;;;15.60;10.90;;;8.00;75.50;;;;;;4977939;28;20502;-81
2021/03/10 10:18:47;;;;;;;14.45;11.00;;;8.00;75.40;;;;;;4973875;28;20356;-81
2021/03/10 10:21:13;;;;;;;15.57;11.20;;;8.00;75.40;;;;;;4972749;28;20061;-82
2021/03/10 10:23:41;;;;;;;14.90;11.07;;;8.00;75.40;;;;;;4974767;28;20389;-81
2021/03/10 10:26:12;;;;;;;16.80;11.98;;;8.10;75.40;;;;;;4972603;28;20034;-81
2021/03/10 10:28:41;;;;;;;16.70;11.13;;;8.10;75.40;;;;;;4977963;28;20038;-81
2021/03/10 10:31:11;;;;;;;14.73;11.00;;;8.20;75.40;;;;;;4993355;28;20038;-82
2021/03/10 10:33:37;;;;;;;15.45;11.13;;;8.20;75.40;;;;;;4977437;28;20519;-82
2021/03/10 10:36:04;;;;;;;15.60;11.88;;;8.20;75.40;;;;;;4977353;28;20080;-80
2021/03/10 10:38:31;;;;;;;16.20;11.70;;;8.20;75.40;;;;;;4976964;28;20160;-81
2021/03/10 10:41:00;;;;;;;17.35;12.98;;;8.20;75.40;;;;;;4989101;28;20119;-83
2021/03/10 10:43:29;;;;;;;16.77;12.50;;;8.30;75.40;;;;;;4977052;28;20046;-79
2021/03/10 10:45:56;;;;;;;16.60;11.75;;;8.30;75.40;;;;;;4960864;28;20487;-82
2021/03/10 10:48:26;;;;;;;17.85;12.32;;;8.40;75.40;;;;;;4972296;28;20030;-80
2021/03/10 10:51:02;;;;;;;17.02;12.32;;;8.40;75.40;;;;;;4977998;28;20031;-79
2021/03/10 10:53:38;;;;;;;16.50;12.38;;;8.40;75.40;;;;;;4992687;28;20477;-79
2021/03/10 10:56:04;;;;;;;15.30;11.48;;;8.50;75.40;;;;;;4992458;28;20075;-79
2021/03/10 10:58:31;;;;;;;15.63;11.93;;;8.50;75.40;;;;;;4993699;28;20089;-80
2021/03/10 11:00:57;;;;;;;17.23;12.50;;;8.50;75.40;;;;;;4959863;28;20034;-80
2021/03/10 11:03:23;;;;;;;15.18;11.32;;;8.50;75.40;;;;;;4960020;28;20153;-80
2021/03/10 11:05:52;;;;;;;14.15;11.25;;;8.60;75.40;;;;;;4992338;28;20531;-79
2021/03/10 11:08:21;;;;;;;15.82;11.55;;;8.60;75.40;;;;;;4975292;28;20026;-79
2021/03/10 11:10:47;;;;;;;14.85;11.20;;;8.70;75.50;;;;;;4957228;28;20097;-79
2021/03/10 11:13:13;;;;;;;15.55;12.05;;;8.70;75.40;;;;;;4990090;28;20129;-79
2021/03/10 11:15:49;;;;;;;15.32;11.18;;;8.70;75.50;;;;;;4977294;28;20475;-79
2021/03/10 11:18:28;;;;;;;14.90;11.30;;;8.80;75.50;;;;;;4963819;28;20062;-79
2021/03/10 11:20:55;;;;;;;16.08;11.30;;;8.80;75.40;;;;;;4975900;28;20561;-80
2021/03/10 11:23:22;;;;;;;15.60;11.00;;;8.80;75.40;;;;;;4972871;28;20133;-79
2021/03/10 11:25:47;;;;;;;15.82;11.52;;;8.90;75.50;;;;;;4985022;28;20114;-78
2021/03/10 11:28:14;;;;;;;17.20;12.00;;;8.90;75.50;;;;;;4984970;28;20501;-79
2021/03/10 11:30:40;;;;;;;15.35;11.30;;;8.90;75.50;;;;;;4975127;28;20046;-79
2021/03/10 11:33:09;;;;;;;15.77;12.25;;;9.00;75.50;;;;;;4992076;28;20487;-79
2021/03/10 11:35:40;;;;;;;14.57;10.77;;;9.00;75.50;;;;;;4976052;28;20053;-78
2021/03/10 11:38:06;;;;;;;14.82;11.38;;;9.00;75.40;;;;;;4975496;28;20088;-79
2021/03/10 11:40:31;;;;;;;14.15;10.90;;;9.10;75.50;;;;;;4991929;28;20030;-78
2021/03/10 11:42:57;;;;;;;14.27;11.07;;;9.10;75.50;;;;;;4991888;28;20112;-79
2021/03/10 11:45:23;;;;;;;14.23;11.20;;;9.10;75.50;;;;;;4972244;28;20159;-78
2021/03/10 11:47:49;;;;;;;13.95;10.95;;;9.20;75.50;;;;;;4975233;28;20022;-78
2021/03/10 11:50:15;;;;;;;14.75;11.27;;;9.20;75.50;;;;;;4975482;28;20473;-79
2021/03/10 11:52:42;;;;;;;14.18;10.45;;;9.20;75.40;;;;;;4959436;28;20422;-79
2021/03/10 11:55:10;;;;;;;15.45;10.98;;;9.20;75.40;;;;;;4990674;28;20029;-79
2021/03/10 11:57:36;;;;;;;13.27;10.20;;;9.30;75.50;;;;;;4959322;28;20027;-78
2021/03/10 12:00:07;;;;;;;12.90;10.38;;;9.30;75.50;;;;;;4991811;28;20490;-78
2021/03/10 12:02:39;;;;;;;13.05;9.82;;;9.30;75.40;;;;;;4991335;28;20093;-79
2021/03/10 12:05:09;;;;;;;13.27;9.82;;;9.40;75.50;;;;;;4976024;28;20033;-78
2021/03/10 12:07:35;;;;;;;13.15;9.68;;;9.40;75.40;;;;;;4973336;28;20043;-78
2021/03/10 12:10:01;;;;;;;13.82;10.00;;;9.40;75.40;;;;;;4991589;28;20030;-78
2021/03/10 12:12:28;;;;;;;13.65;10.50;;;9.50;75.50;;;;;;4975555;28;20031;-78
2021/03/10 12:15:04;;;;;;;13.07;9.73;;;9.50;75.50;;;;;;4977041;28;20050;-78
2021/03/10 12:17:29;;;;;;;12.48;9.82;;;9.50;75.50;;;;;;4968223;28;20427;-78
2021/03/10 12:19:55;;;;;;;14.10;10.35;;;9.60;75.50;;;;;;4957880;28;20125;-79
2021/03/10 12:22:21;;;;;;;12.73;9.45;;;9.60;75.50;;;;;;4989311;28;20066;-79
2021/03/10 12:24:47;;;;;;;14.55;9.63;;;9.60;75.40;;;;;;4975635;28;20039;-79
2021/03/10 12:27:23;;;;;;;13.63;9.73;;;9.70;75.50;;;;;;4991262;28;20494;-80
2021/03/10 12:29:53;;;;;;;11.77;8.70;;;9.70;75.50;;;;;;4992637;28;20121;-80
2021/03/10 12:32:21;;;;;;;13.23;9.52;;;9.70;75.40;;;;;;4975371;28;20069;-79
2021/03/10 12:34:57;;;;;;;12.57;8.82;;;9.80;75.50;;;;;;4991598;28;20026;-79
2021/03/10 12:37:24;;;;;;;12.85;9.48;;;9.80;75.50;;;;;;4987393;28;20101;-79
2021/03/10 12:39:50;;;;;;;12.88;9.40;;;9.90;75.50;;;;;;4975809;28;20033;-79
2021/03/10 12:42:15;;;;;;;12.32;9.90;;;9.90;75.50;;;;;;4978767;28;20065;-79
2021/03/10 12:44:43;;;;;;;12.77;9.40;;;9.90;75.40;;;;;;4961494;28;20039;-79
2021/03/10 12:47:09;;;;;;;11.82;8.63;;;9.90;75.40;;;;;;4994877;28;20034;-79
2021/03/10 12:49:35;;;;;;;13.13;10.00;;;10.00;75.40;;;;;;4978847;28;20045;-80
2021/03/10 12:52:01;;;;;;;11.73;8.88;;;10.00;75.40;;;;;;4995886;28;20026;-79
2021/03/10 12:54:27;;;;;;;12.95;9.95;;;10.10;75.40;;;;;;4975667;28;20070;-79
2021/03/10 12:56:54;;;;;;;12.57;9.60;;;10.10;75.40;;;;;;4995106;28;20068;-79